sensor_id;sensor_type;location;lat;lon;timestamp;temperature;humidity
79187;SHT31;68762;51.980;5.646;2023-05-27T00:01:11;14.7;51.4
79187;SHT31;68762;51.980;5.646;2023-05-27T00:03:40;14.6;50.9
79187;SHT31;68762;51.980;5.646;2023-05-27T00:06:09;14.6;51.0
79187;SHT31;68762;51.980;5.646;2023-05-27T00:08:37;14.6;50.9
79187;SHT31;68762;51.980;5.646;2023-05-27T00:11:06;14.5;51.3
79187;SHT31;68762;51.980;5.646;2023-05-27T00:13:35;14.5;51.2
79187;SHT31;68762;51.980;5.646;2023-05-27T00:16:04;14.4;51.4
79187;SHT31;68762;51.980;5.646;2023-05-27T00:18:33;14.4;51.5
79187;SHT31;68762;51.980;5.646;2023-05-27T00:21:02;14.3;51.6
79187;SHT31;68762;51.980;5.646;2023-05-27T00:23:30;14.3;51.8
79187;SHT31;68762;51.980;5.646;2023-05-27T00:25:59;14.3;51.9
79187;SHT31;68762;51.980;5.646;2023-05-27T00:28:27;14.2;52.3
79187;SHT31;68762;51.980;5.646;2023-05-27T00:30:57;14.2;52.0
79187;SHT31;68762;51.980;5.646;2023-05-27T00:33:28;14.1;52.3
79187;SHT31;68762;51.980;5.646;2023-05-27T00:35:56;14.1;52.5
79187;SHT31;68762;51.980;5.646;2023-05-27T00:38:25;14.1;52.7
79187;SHT31;68762;51.980;5.646;2023-05-27T00:40:54;14.0;52.8
79187;SHT31;68762;51.980;5.646;2023-05-27T00:43:23;14.0;52.7
79187;SHT31;68762;51.980;5.646;2023-05-27T00:45:51;14.0;52.7
79187;SHT31;68762;51.980;5.646;2023-05-27T00:48:20;13.9;53.1
79187;SHT31;68762;51.980;5.646;2023-05-27T00:50:48;13.9;53.5
79187;SHT31;68762;51.980;5.646;2023-05-27T00:53:17;13.9;53.2
79187;SHT31;68762;51.980;5.646;2023-05-27T00:55:48;13.9;53.3
79187;SHT31;68762;51.980;5.646;2023-05-27T00:58:18;13.8;53.3
79187;SHT31;68762;51.980;5.646;2023-05-27T01:00:48;13.8;53.6
79187;SHT31;68762;51.980;5.646;2023-05-27T01:03:17;13.8;53.7
79187;SHT31;68762;51.980;5.646;2023-05-27T01:05:46;13.8;53.9
79187;SHT31;68762;51.980;5.646;2023-05-27T01:08:27;13.8;54.1
79187;SHT31;68762;51.980;5.646;2023-05-27T01:10:57;13.8;54.0
79187;SHT31;68762;51.980;5.646;2023-05-27T01:13:35;13.7;53.8
79187;SHT31;68762;51.980;5.646;2023-05-27T01:16:11;13.7;54.3
79187;SHT31;68762;51.980;5.646;2023-05-27T01:18:44;13.7;54.0
79187;SHT31;68762;51.980;5.646;2023-05-27T01:21:16;13.7;53.8
79187;SHT31;68762;51.980;5.646;2023-05-27T01:23:47;13.7;54.0
79187;SHT31;68762;51.980;5.646;2023-05-27T01:26:18;13.7;54.3
79187;SHT31;68762;51.980;5.646;2023-05-27T01:28:46;13.6;54.1
79187;SHT31;68762;51.980;5.646;2023-05-27T01:31:21;13.6;54.3
79187;SHT31;68762;51.980;5.646;2023-05-27T01:33:58;13.6;54.2
79187;SHT31;68762;51.980;5.646;2023-05-27T01:36:32;13.6;54.7
79187;SHT31;68762;51.980;5.646;2023-05-27T01:39:06;13.6;54.5
79187;SHT31;68762;51.980;5.646;2023-05-27T01:41:39;13.5;54.8
79187;SHT31;68762;51.980;5.646;2023-05-27T01:44:10;13.5;54.9
79187;SHT31;68762;51.980;5.646;2023-05-27T01:46:41;13.5;55.0
79187;SHT31;68762;51.980;5.646;2023-05-27T01:49:09;13.5;54.7
79187;SHT31;68762;51.980;5.646;2023-05-27T01:51:40;13.5;55.2
79187;SHT31;68762;51.980;5.646;2023-05-27T01:54:08;13.4;55.1
79187;SHT31;68762;51.980;5.646;2023-05-27T01:56:37;13.4;54.7
79187;SHT31;68762;51.980;5.646;2023-05-27T01:59:06;13.4;55.6
79187;SHT31;68762;51.980;5.646;2023-05-27T02:01:35;13.4;54.7
79187;SHT31;68762;51.980;5.646;2023-05-27T02:04:03;13.4;55.2
79187;SHT31;68762;51.980;5.646;2023-05-27T02:06:32;13.4;55.3
79187;SHT31;68762;51.980;5.646;2023-05-27T02:09:01;13.3;56.0
79187;SHT31;68762;51.980;5.646;2023-05-27T02:11:29;13.3;55.9
79187;SHT31;68762;51.980;5.646;2023-05-27T02:13:58;13.3;55.4
79187;SHT31;68762;51.980;5.646;2023-05-27T02:16:27;13.3;55.5
79187;SHT31;68762;51.980;5.646;2023-05-27T02:18:56;13.3;55.5
79187;SHT31;68762;51.980;5.646;2023-05-27T02:21:27;13.2;55.9
79187;SHT31;68762;51.980;5.646;2023-05-27T02:23:55;13.2;55.9
79187;SHT31;68762;51.980;5.646;2023-05-27T02:26:24;13.2;55.6
79187;SHT31;68762;51.980;5.646;2023-05-27T02:28:53;13.2;55.9
79187;SHT31;68762;51.980;5.646;2023-05-27T02:31:22;13.2;56.2
79187;SHT31;68762;51.980;5.646;2023-05-27T02:33:51;13.1;56.1
79187;SHT31;68762;51.980;5.646;2023-05-27T02:36:20;13.1;56.0
79187;SHT31;68762;51.980;5.646;2023-05-27T02:38:50;13.1;55.6
79187;SHT31;68762;51.980;5.646;2023-05-27T02:41:19;13.1;55.6
79187;SHT31;68762;51.980;5.646;2023-05-27T02:43:47;13.1;55.9
79187;SHT31;68762;51.980;5.646;2023-05-27T02:46:16;13.1;55.8
79187;SHT31;68762;51.980;5.646;2023-05-27T02:48:45;13.0;56.0
79187;SHT31;68762;51.980;5.646;2023-05-27T02:51:14;13.0;55.9
79187;SHT31;68762;51.980;5.646;2023-05-27T02:53:42;13.0;56.1
79187;SHT31;68762;51.980;5.646;2023-05-27T02:56:11;13.0;56.1
79187;SHT31;68762;51.980;5.646;2023-05-27T02:58:39;13.0;56.3
79187;SHT31;68762;51.980;5.646;2023-05-27T03:01:08;12.9;56.3
79187;SHT31;68762;51.980;5.646;2023-05-27T03:03:36;12.9;56.2
79187;SHT31;68762;51.980;5.646;2023-05-27T03:06:05;12.9;56.6
79187;SHT31;68762;51.980;5.646;2023-05-27T03:08:35;12.9;57.0
79187;SHT31;68762;51.980;5.646;2023-05-27T03:11:04;12.8;57.1
79187;SHT31;68762;51.980;5.646;2023-05-27T03:13:32;12.8;57.0
79187;SHT31;68762;51.980;5.646;2023-05-27T03:16:01;12.8;56.9
79187;SHT31;68762;51.980;5.646;2023-05-27T03:18:29;12.8;57.0
79187;SHT31;68762;51.980;5.646;2023-05-27T03:20:58;12.8;57.2
79187;SHT31;68762;51.980;5.646;2023-05-27T03:23:27;12.7;57.2
79187;SHT31;68762;51.980;5.646;2023-05-27T03:25:56;12.7;57.9
79187;SHT31;68762;51.980;5.646;2023-05-27T03:28:24;12.7;57.9
79187;SHT31;68762;51.980;5.646;2023-05-27T03:30:53;12.7;57.6
79187;SHT31;68762;51.980;5.646;2023-05-27T03:33:23;12.6;58.1
79187;SHT31;68762;51.980;5.646;2023-05-27T03:35:51;12.6;57.9
79187;SHT31;68762;51.980;5.646;2023-05-27T03:38:22;12.6;58.0
79187;SHT31;68762;51.980;5.646;2023-05-27T03:40:51;12.6;58.0
79187;SHT31;68762;51.980;5.646;2023-05-27T03:43:19;12.6;58.5
79187;SHT31;68762;51.980;5.646;2023-05-27T03:45:48;12.6;57.9
79187;SHT31;68762;51.980;5.646;2023-05-27T03:48:16;12.6;57.8
79187;SHT31;68762;51.980;5.646;2023-05-27T03:50:45;12.6;57.9
79187;SHT31;68762;51.980;5.646;2023-05-27T03:53:14;12.6;58.0
79187;SHT31;68762;51.980;5.646;2023-05-27T03:55:42;12.6;58.0
79187;SHT31;68762;51.980;5.646;2023-05-27T03:58:11;12.5;57.7
79187;SHT31;68762;51.980;5.646;2023-05-27T04:00:41;12.5;57.6
79187;SHT31;68762;51.980;5.646;2023-05-27T04:03:10;12.5;57.7
79187;SHT31;68762;51.980;5.646;2023-05-27T04:05:38;12.5;57.9
79187;SHT31;68762;51.980;5.646;2023-05-27T04:08:09;12.5;57.9
79187;SHT31;68762;51.980;5.646;2023-05-27T04:10:39;12.5;58.4
79187;SHT31;68762;51.980;5.646;2023-05-27T04:13:08;12.5;58.4
79187;SHT31;68762;51.980;5.646;2023-05-27T04:15:38;12.5;58.1
79187;SHT31;68762;51.980;5.646;2023-05-27T04:18:06;12.5;58.1
79187;SHT31;68762;51.980;5.646;2023-05-27T04:20:40;12.5;58.0
79187;SHT31;68762;51.980;5.646;2023-05-27T04:23:10;12.4;58.0
79187;SHT31;68762;51.980;5.646;2023-05-27T04:25:39;12.4;58.2
79187;SHT31;68762;51.980;5.646;2023-05-27T04:28:08;12.4;58.3
79187;SHT31;68762;51.980;5.646;2023-05-27T04:30:37;12.4;58.6
79187;SHT31;68762;51.980;5.646;2023-05-27T04:33:08;12.4;58.9
79187;SHT31;68762;51.980;5.646;2023-05-27T04:35:39;12.4;59.2
79187;SHT31;68762;51.980;5.646;2023-05-27T04:38:11;12.4;58.5
79187;SHT31;68762;51.980;5.646;2023-05-27T04:40:42;12.4;58.9
79187;SHT31;68762;51.980;5.646;2023-05-27T04:43:18;12.4;58.6
79187;SHT31;68762;51.980;5.646;2023-05-27T04:45:47;12.4;59.0
79187;SHT31;68762;51.980;5.646;2023-05-27T04:48:15;12.4;58.9
79187;SHT31;68762;51.980;5.646;2023-05-27T04:50:44;12.4;59.0
79187;SHT31;68762;51.980;5.646;2023-05-27T04:53:12;12.4;59.0
79187;SHT31;68762;51.980;5.646;2023-05-27T04:55:42;12.5;59.2
79187;SHT31;68762;51.980;5.646;2023-05-27T04:58:11;12.5;59.1
79187;SHT31;68762;51.980;5.646;2023-05-27T05:00:41;12.5;59.9
79187;SHT31;68762;51.980;5.646;2023-05-27T05:03:20;12.5;59.6
79187;SHT31;68762;51.980;5.646;2023-05-27T05:05:53;12.6;59.4
79187;SHT31;68762;51.980;5.646;2023-05-27T05:08:23;12.7;59.0
79187;SHT31;68762;51.980;5.646;2023-05-27T05:10:52;12.7;59.0
79187;SHT31;68762;51.980;5.646;2023-05-27T05:13:21;12.7;59.0
79187;SHT31;68762;51.980;5.646;2023-05-27T05:15:50;12.8;58.9
79187;SHT31;68762;51.980;5.646;2023-05-27T05:18:20;12.8;59.4
79187;SHT31;68762;51.980;5.646;2023-05-27T05:20:52;12.8;59.2
79187;SHT31;68762;51.980;5.646;2023-05-27T05:23:21;12.9;59.1
79187;SHT31;68762;51.980;5.646;2023-05-27T05:25:50;12.9;59.2
79187;SHT31;68762;51.980;5.646;2023-05-27T05:28:28;12.9;59.3
79187;SHT31;68762;51.980;5.646;2023-05-27T05:30:56;13.0;59.3
79187;SHT31;68762;51.980;5.646;2023-05-27T05:33:26;13.0;59.4
79187;SHT31;68762;51.980;5.646;2023-05-27T05:35:55;13.0;59.5
79187;SHT31;68762;51.980;5.646;2023-05-27T05:38:23;13.0;59.1
79187;SHT31;68762;51.980;5.646;2023-05-27T05:40:52;13.0;59.5
79187;SHT31;68762;51.980;5.646;2023-05-27T05:43:21;13.1;59.0
79187;SHT31;68762;51.980;5.646;2023-05-27T05:45:49;13.1;59.7
79187;SHT31;68762;51.980;5.646;2023-05-27T05:48:19;13.1;59.9
79187;SHT31;68762;51.980;5.646;2023-05-27T05:50:48;13.1;60.0
79187;SHT31;68762;51.980;5.646;2023-05-27T05:53:17;13.2;60.2
79187;SHT31;68762;51.980;5.646;2023-05-27T05:55:47;13.2;60.2
79187;SHT31;68762;51.980;5.646;2023-05-27T05:58:16;13.3;60.7
79187;SHT31;68762;51.980;5.646;2023-05-27T06:00:45;13.3;60.6
79187;SHT31;68762;51.980;5.646;2023-05-27T06:03:13;13.4;61.5
79187;SHT31;68762;51.980;5.646;2023-05-27T06:05:43;13.4;61.4
79187;SHT31;68762;51.980;5.646;2023-05-27T06:08:11;13.5;61.1
79187;SHT31;68762;51.980;5.646;2023-05-27T06:10:40;13.6;61.1
79187;SHT31;68762;51.980;5.646;2023-05-27T06:13:09;13.6;60.9
79187;SHT31;68762;51.980;5.646;2023-05-27T06:15:38;13.7;61.0
79187;SHT31;68762;51.980;5.646;2023-05-27T06:18:07;13.8;60.8
79187;SHT31;68762;51.980;5.646;2023-05-27T06:20:36;13.9;61.3
79187;SHT31;68762;51.980;5.646;2023-05-27T06:23:04;13.9;60.9
79187;SHT31;68762;51.980;5.646;2023-05-27T06:25:33;14.0;60.6
79187;SHT31;68762;51.980;5.646;2023-05-27T06:28:02;14.1;60.4
79187;SHT31;68762;51.980;5.646;2023-05-27T06:30:31;14.2;60.2
79187;SHT31;68762;51.980;5.646;2023-05-27T06:33:00;14.3;59.6
79187;SHT31;68762;51.980;5.646;2023-05-27T06:35:30;14.4;59.3
79187;SHT31;68762;51.980;5.646;2023-05-27T06:38:00;14.5;59.3
79187;SHT31;68762;51.980;5.646;2023-05-27T06:40:28;14.6;60.1
79187;SHT31;68762;51.980;5.646;2023-05-27T06:42:57;14.7;59.3
79187;SHT31;68762;51.980;5.646;2023-05-27T06:45:27;14.8;58.6
79187;SHT31;68762;51.980;5.646;2023-05-27T06:47:58;15.0;58.3
79187;SHT31;68762;51.980;5.646;2023-05-27T06:50:27;15.1;57.4
79187;SHT31;68762;51.980;5.646;2023-05-27T06:52:55;15.4;58.2
79187;SHT31;68762;51.980;5.646;2023-05-27T06:55:24;15.8;57.3
79187;SHT31;68762;51.980;5.646;2023-05-27T06:57:52;16.3;56.3
79187;SHT31;68762;51.980;5.646;2023-05-27T07:00:21;16.8;54.7
79187;SHT31;68762;51.980;5.646;2023-05-27T07:02:50;17.3;54.1
79187;SHT31;68762;51.980;5.646;2023-05-27T07:05:19;17.9;51.3
79187;SHT31;68762;51.980;5.646;2023-05-27T07:07:47;18.4;49.1
79187;SHT31;68762;51.980;5.646;2023-05-27T07:10:16;18.8;48.3
79187;SHT31;68762;51.980;5.646;2023-05-27T07:12:44;19.3;48.6
79187;SHT31;68762;51.980;5.646;2023-05-27T07:15:13;19.7;47.5
79187;SHT31;68762;51.980;5.646;2023-05-27T07:17:42;20.2;46.9
79187;SHT31;68762;51.980;5.646;2023-05-27T07:20:14;20.7;45.2
79187;SHT31;68762;51.980;5.646;2023-05-27T07:22:42;21.2;44.8
79187;SHT31;68762;51.980;5.646;2023-05-27T07:25:13;21.6;43.6
79187;SHT31;68762;51.980;5.646;2023-05-27T07:27:42;22.1;42.1
79187;SHT31;68762;51.980;5.646;2023-05-27T07:30:11;22.6;42.3
79187;SHT31;68762;51.980;5.646;2023-05-27T07:32:39;23.0;41.1
79187;SHT31;68762;51.980;5.646;2023-05-27T07:35:08;23.4;39.6
79187;SHT31;68762;51.980;5.646;2023-05-27T07:37:37;23.7;39.4
79187;SHT31;68762;51.980;5.646;2023-05-27T07:40:06;24.0;38.1
79187;SHT31;68762;51.980;5.646;2023-05-27T07:42:35;24.4;37.4
79187;SHT31;68762;51.980;5.646;2023-05-27T07:45:04;24.7;37.1
79187;SHT31;68762;51.980;5.646;2023-05-27T07:47:33;25.0;36.7
79187;SHT31;68762;51.980;5.646;2023-05-27T07:50:02;25.2;36.7
79187;SHT31;68762;51.980;5.646;2023-05-27T07:52:31;25.5;36.9
79187;SHT31;68762;51.980;5.646;2023-05-27T07:55:00;25.8;36.4
79187;SHT31;68762;51.980;5.646;2023-05-27T07:57:29;26.2;35.9
79187;SHT31;68762;51.980;5.646;2023-05-27T07:59:57;26.5;33.7
79187;SHT31;68762;51.980;5.646;2023-05-27T08:02:27;26.7;33.9
79187;SHT31;68762;51.980;5.646;2023-05-27T08:04:55;27.0;34.0
79187;SHT31;68762;51.980;5.646;2023-05-27T08:07:24;27.1;33.9
79187;SHT31;68762;51.980;5.646;2023-05-27T08:09:52;27.2;34.2
79187;SHT31;68762;51.980;5.646;2023-05-27T08:12:21;27.3;33.7
79187;SHT31;68762;51.980;5.646;2023-05-27T08:14:51;27.4;32.3
79187;SHT31;68762;51.980;5.646;2023-05-27T08:17:20;27.4;33.1
79187;SHT31;68762;51.980;5.646;2023-05-27T08:19:48;27.4;33.2
79187;SHT31;68762;51.980;5.646;2023-05-27T08:22:17;27.4;32.3
79187;SHT31;68762;51.980;5.646;2023-05-27T08:24:46;27.4;32.8
79187;SHT31;68762;51.980;5.646;2023-05-27T08:27:16;27.4;32.4
79187;SHT31;68762;51.980;5.646;2023-05-27T08:29:45;27.4;33.0
79187;SHT31;68762;51.980;5.646;2023-05-27T08:32:14;27.3;32.7
79187;SHT31;68762;51.980;5.646;2023-05-27T08:34:42;27.2;31.8
79187;SHT31;68762;51.980;5.646;2023-05-27T08:37:11;27.1;31.3
79187;SHT31;68762;51.980;5.646;2023-05-27T08:39:40;26.9;34.0
79187;SHT31;68762;51.980;5.646;2023-05-27T08:42:08;26.8;33.1
79187;SHT31;68762;51.980;5.646;2023-05-27T08:44:37;26.6;31.4
79187;SHT31;68762;51.980;5.646;2023-05-27T08:47:07;26.4;34.0
79187;SHT31;68762;51.980;5.646;2023-05-27T08:49:36;26.2;33.3
79187;SHT31;68762;51.980;5.646;2023-05-27T08:52:06;26.0;35.4
79187;SHT31;68762;51.980;5.646;2023-05-27T08:54:38;25.9;34.7
79187;SHT31;68762;51.980;5.646;2023-05-27T08:57:07;25.8;33.7
79187;SHT31;68762;51.980;5.646;2023-05-27T08:59:38;25.7;32.6
79187;SHT31;68762;51.980;5.646;2023-05-27T09:02:12;25.5;33.5
79187;SHT31;68762;51.980;5.646;2023-05-27T09:04:43;25.4;35.5
79187;SHT31;68762;51.980;5.646;2023-05-27T09:07:12;25.3;36.5
79187;SHT31;68762;51.980;5.646;2023-05-27T09:09:42;25.1;33.1
79187;SHT31;68762;51.980;5.646;2023-05-27T09:12:11;25.0;36.2
79187;SHT31;68762;51.980;5.646;2023-05-27T09:14:39;24.9;36.7
79187;SHT31;68762;51.980;5.646;2023-05-27T09:17:08;24.9;36.5
79187;SHT31;68762;51.980;5.646;2023-05-27T09:19:37;24.8;35.6
79187;SHT31;68762;51.980;5.646;2023-05-27T09:22:06;24.8;35.0
79187;SHT31;68762;51.980;5.646;2023-05-27T09:24:36;24.7;36.4
79187;SHT31;68762;51.980;5.646;2023-05-27T09:27:04;24.7;37.8
79187;SHT31;68762;51.980;5.646;2023-05-27T09:29:37;24.7;33.4
79187;SHT31;68762;51.980;5.646;2023-05-27T09:32:07;24.7;36.3
79187;SHT31;68762;51.980;5.646;2023-05-27T09:34:40;24.6;37.2
79187;SHT31;68762;51.980;5.646;2023-05-27T09:37:14;24.6;35.5
79187;SHT31;68762;51.980;5.646;2023-05-27T09:39:43;24.6;36.0
79187;SHT31;68762;51.980;5.646;2023-05-27T09:42:14;24.6;34.5
79187;SHT31;68762;51.980;5.646;2023-05-27T09:44:46;24.6;36.9
79187;SHT31;68762;51.980;5.646;2023-05-27T09:47:16;24.5;36.2
79187;SHT31;68762;51.980;5.646;2023-05-27T09:49:48;24.5;36.3
79187;SHT31;68762;51.980;5.646;2023-05-27T09:52:22;24.5;36.3
79187;SHT31;68762;51.980;5.646;2023-05-27T09:54:51;24.6;38.2
79187;SHT31;68762;51.980;5.646;2023-05-27T09:57:20;24.6;36.4
79187;SHT31;68762;51.980;5.646;2023-05-27T09:59:53;24.6;35.8
79187;SHT31;68762;51.980;5.646;2023-05-27T10:02:23;24.7;36.5
79187;SHT31;68762;51.980;5.646;2023-05-27T10:04:53;24.8;35.3
79187;SHT31;68762;51.980;5.646;2023-05-27T10:07:23;24.8;37.9
79187;SHT31;68762;51.980;5.646;2023-05-27T10:09:54;24.9;37.5
79187;SHT31;68762;51.980;5.646;2023-05-27T10:12:23;24.9;35.3
79187;SHT31;68762;51.980;5.646;2023-05-27T10:14:52;25.0;36.4
79187;SHT31;68762;51.980;5.646;2023-05-27T10:17:20;25.0;35.5
79187;SHT31;68762;51.980;5.646;2023-05-27T10:19:55;25.1;36.0
79187;SHT31;68762;51.980;5.646;2023-05-27T10:22:26;25.1;37.1
79187;SHT31;68762;51.980;5.646;2023-05-27T10:24:55;25.1;37.4
79187;SHT31;68762;51.980;5.646;2023-05-27T10:27:29;25.2;34.2
79187;SHT31;68762;51.980;5.646;2023-05-27T10:30:00;25.2;34.8
79187;SHT31;68762;51.980;5.646;2023-05-27T10:32:31;25.3;36.5
79187;SHT31;68762;51.980;5.646;2023-05-27T10:35:04;25.3;34.4
79187;SHT31;68762;51.980;5.646;2023-05-27T10:37:34;25.3;33.5
79187;SHT31;68762;51.980;5.646;2023-05-27T10:40:05;25.3;37.1
79187;SHT31;68762;51.980;5.646;2023-05-27T10:42:34;25.3;37.1
79187;SHT31;68762;51.980;5.646;2023-05-27T10:45:08;25.4;37.8
79187;SHT31;68762;51.980;5.646;2023-05-27T10:47:37;25.4;33.7
79187;SHT31;68762;51.980;5.646;2023-05-27T10:50:14;25.4;33.7
79187;SHT31;68762;51.980;5.646;2023-05-27T10:52:42;25.4;34.3
79187;SHT31;68762;51.980;5.646;2023-05-27T10:55:11;25.5;34.1
79187;SHT31;68762;51.980;5.646;2023-05-27T10:57:42;25.5;35.3
79187;SHT31;68762;51.980;5.646;2023-05-27T11:00:15;25.5;35.0
79187;SHT31;68762;51.980;5.646;2023-05-27T11:02:47;25.5;35.2
79187;SHT31;68762;51.980;5.646;2023-05-27T11:05:19;25.5;37.3
79187;SHT31;68762;51.980;5.646;2023-05-27T11:07:48;25.6;34.0
79187;SHT31;68762;51.980;5.646;2023-05-27T11:10:17;25.6;36.8
79187;SHT31;68762;51.980;5.646;2023-05-27T11:12:46;25.6;37.2
79187;SHT31;68762;51.980;5.646;2023-05-27T11:15:15;25.7;33.9
79187;SHT31;68762;51.980;5.646;2023-05-27T11:17:43;25.7;32.5
79187;SHT31;68762;51.980;5.646;2023-05-27T11:20:12;25.7;34.2
79187;SHT31;68762;51.980;5.646;2023-05-27T11:22:52;25.8;32.3
79187;SHT31;68762;51.980;5.646;2023-05-27T11:25:20;25.8;32.4
79187;SHT31;68762;51.980;5.646;2023-05-27T11:27:49;25.8;34.7
79187;SHT31;68762;51.980;5.646;2023-05-27T11:30:23;25.8;33.7
79187;SHT31;68762;51.980;5.646;2023-05-27T11:33:03;25.9;33.2
79187;SHT31;68762;51.980;5.646;2023-05-27T11:35:33;25.9;33.5
79187;SHT31;68762;51.980;5.646;2023-05-27T11:38:02;25.9;32.8
79187;SHT31;68762;51.980;5.646;2023-05-27T11:40:35;26.0;31.2
79187;SHT31;68762;51.980;5.646;2023-05-27T11:43:05;26.0;33.6
79187;SHT31;68762;51.980;5.646;2023-05-27T11:45:36;26.0;33.8
79187;SHT31;68762;51.980;5.646;2023-05-27T11:48:05;26.1;31.6
79187;SHT31;68762;51.980;5.646;2023-05-27T11:50:36;26.1;31.9
79187;SHT31;68762;51.980;5.646;2023-05-27T11:53:05;26.1;34.4
79187;SHT31;68762;51.980;5.646;2023-05-27T11:55:33;26.2;32.2
79187;SHT31;68762;51.980;5.646;2023-05-27T11:58:02;26.2;34.3
79187;SHT31;68762;51.980;5.646;2023-05-27T12:00:30;26.2;35.4
79187;SHT31;68762;51.980;5.646;2023-05-27T12:02:59;26.2;31.0
79187;SHT31;68762;51.980;5.646;2023-05-27T12:05:27;26.3;31.1
79187;SHT31;68762;51.980;5.646;2023-05-27T12:07:56;26.3;31.7
79187;SHT31;68762;51.980;5.646;2023-05-27T12:10:24;26.3;33.1
79187;SHT31;68762;51.980;5.646;2023-05-27T12:12:53;26.3;32.3
79187;SHT31;68762;51.980;5.646;2023-05-27T12:15:21;26.3;33.5
79187;SHT31;68762;51.980;5.646;2023-05-27T12:17:51;26.3;31.4
79187;SHT31;68762;51.980;5.646;2023-05-27T12:20:20;26.3;31.9
79187;SHT31;68762;51.980;5.646;2023-05-27T12:22:52;26.3;32.4
79187;SHT31;68762;51.980;5.646;2023-05-27T12:25:21;26.3;31.6
79187;SHT31;68762;51.980;5.646;2023-05-27T12:27:50;26.3;30.8
79187;SHT31;68762;51.980;5.646;2023-05-27T12:30:18;26.3;31.1
79187;SHT31;68762;51.980;5.646;2023-05-27T12:32:48;26.3;31.5
79187;SHT31;68762;51.980;5.646;2023-05-27T12:35:16;26.3;31.7
79187;SHT31;68762;51.980;5.646;2023-05-27T12:37:45;26.3;33.3
79187;SHT31;68762;51.980;5.646;2023-05-27T12:40:15;26.3;34.0
79187;SHT31;68762;51.980;5.646;2023-05-27T12:42:44;26.3;32.0
79187;SHT31;68762;51.980;5.646;2023-05-27T12:45:14;26.3;34.4
79187;SHT31;68762;51.980;5.646;2023-05-27T12:47:45;26.4;33.3
79187;SHT31;68762;51.980;5.646;2023-05-27T12:50:14;26.4;31.4
79187;SHT31;68762;51.980;5.646;2023-05-27T12:52:43;26.5;32.9
79187;SHT31;68762;51.980;5.646;2023-05-27T12:55:13;26.5;32.2
79187;SHT31;68762;51.980;5.646;2023-05-27T12:57:43;26.5;31.1
79187;SHT31;68762;51.980;5.646;2023-05-27T13:00:13;26.5;31.5
79187;SHT31;68762;51.980;5.646;2023-05-27T13:02:43;26.5;30.5
79187;SHT31;68762;51.980;5.646;2023-05-27T13:05:14;26.5;30.5
79187;SHT31;68762;51.980;5.646;2023-05-27T13:07:56;26.5;31.1
79187;SHT31;68762;51.980;5.646;2023-05-27T13:10:26;26.5;30.9
79187;SHT31;68762;51.980;5.646;2023-05-27T13:12:55;26.5;30.3
79187;SHT31;68762;51.980;5.646;2023-05-27T13:15:25;26.5;30.5
79187;SHT31;68762;51.980;5.646;2023-05-27T13:17:53;26.5;30.6
79187;SHT31;68762;51.980;5.646;2023-05-27T13:20:24;26.5;30.9
79187;SHT31;68762;51.980;5.646;2023-05-27T13:22:55;26.5;31.1
79187;SHT31;68762;51.980;5.646;2023-05-27T13:25:26;26.5;30.9
79187;SHT31;68762;51.980;5.646;2023-05-27T13:27:59;26.5;32.7
79187;SHT31;68762;51.980;5.646;2023-05-27T13:30:27;26.5;32.1
79187;SHT31;68762;51.980;5.646;2023-05-27T13:32:56;26.5;32.3
79187;SHT31;68762;51.980;5.646;2023-05-27T13:35:25;26.6;31.4
79187;SHT31;68762;51.980;5.646;2023-05-27T13:37:53;26.6;30.3
79187;SHT31;68762;51.980;5.646;2023-05-27T13:40:22;26.7;30.4
79187;SHT31;68762;51.980;5.646;2023-05-27T13:42:51;26.7;31.5
79187;SHT31;68762;51.980;5.646;2023-05-27T13:45:19;26.8;31.0
79187;SHT31;68762;51.980;5.646;2023-05-27T13:47:50;26.8;29.9
79187;SHT31;68762;51.980;5.646;2023-05-27T13:50:21;26.9;29.4
79187;SHT31;68762;51.980;5.646;2023-05-27T13:52:50;26.9;30.8
79187;SHT31;68762;51.980;5.646;2023-05-27T13:55:18;27.0;29.8
79187;SHT31;68762;51.980;5.646;2023-05-27T13:57:47;27.0;30.7
79187;SHT31;68762;51.980;5.646;2023-05-27T14:00:16;27.0;31.2
79187;SHT31;68762;51.980;5.646;2023-05-27T14:02:44;27.1;31.0
79187;SHT31;68762;51.980;5.646;2023-05-27T14:05:14;27.2;30.7
79187;SHT31;68762;51.980;5.646;2023-05-27T14:07:44;27.2;29.9
79187;SHT31;68762;51.980;5.646;2023-05-27T14:10:13;27.3;31.3
79187;SHT31;68762;51.980;5.646;2023-05-27T14:12:44;27.4;30.1
79187;SHT31;68762;51.980;5.646;2023-05-27T14:15:14;27.5;30.4
79187;SHT31;68762;51.980;5.646;2023-05-27T14:17:44;27.5;29.7
79187;SHT31;68762;51.980;5.646;2023-05-27T14:20:15;27.5;30.8
79187;SHT31;68762;51.980;5.646;2023-05-27T14:22:43;27.5;30.5
79187;SHT31;68762;51.980;5.646;2023-05-27T14:25:12;27.5;29.4
79187;SHT31;68762;51.980;5.646;2023-05-27T14:27:41;27.5;32.3
79187;SHT31;68762;51.980;5.646;2023-05-27T14:30:12;27.5;30.3
79187;SHT31;68762;51.980;5.646;2023-05-27T14:32:42;27.5;29.2
79187;SHT31;68762;51.980;5.646;2023-05-27T14:35:11;27.5;29.6
79187;SHT31;68762;51.980;5.646;2023-05-27T14:37:40;27.5;30.4
79187;SHT31;68762;51.980;5.646;2023-05-27T14:40:09;27.5;30.1
79187;SHT31;68762;51.980;5.646;2023-05-27T14:42:37;27.5;29.7
79187;SHT31;68762;51.980;5.646;2023-05-27T14:45:09;27.5;29.3
79187;SHT31;68762;51.980;5.646;2023-05-27T14:47:38;27.5;29.8
79187;SHT31;68762;51.980;5.646;2023-05-27T14:50:08;27.5;29.9
79187;SHT31;68762;51.980;5.646;2023-05-27T14:52:36;27.5;30.8
79187;SHT31;68762;51.980;5.646;2023-05-27T14:55:06;27.5;31.6
79187;SHT31;68762;51.980;5.646;2023-05-27T14:57:35;27.5;29.2
79187;SHT31;68762;51.980;5.646;2023-05-27T15:00:05;27.5;30.7
79187;SHT31;68762;51.980;5.646;2023-05-27T15:02:34;27.6;29.4
79187;SHT31;68762;51.980;5.646;2023-05-27T15:05:05;27.6;29.4
79187;SHT31;68762;51.980;5.646;2023-05-27T15:07:34;27.6;29.0
79187;SHT31;68762;51.980;5.646;2023-05-27T15:10:03;27.6;28.6
79187;SHT31;68762;51.980;5.646;2023-05-27T15:12:40;27.7;29.1
79187;SHT31;68762;51.980;5.646;2023-05-27T15:15:12;27.7;29.8
79187;SHT31;68762;51.980;5.646;2023-05-27T15:17:42;27.7;29.1
79187;SHT31;68762;51.980;5.646;2023-05-27T15:20:14;27.7;28.9
79187;SHT31;68762;51.980;5.646;2023-05-27T15:22:43;27.6;29.4
79187;SHT31;68762;51.980;5.646;2023-05-27T15:25:13;27.6;30.0
79187;SHT31;68762;51.980;5.646;2023-05-27T15:27:42;27.6;29.3
79187;SHT31;68762;51.980;5.646;2023-05-27T15:30:13;27.6;29.5
79187;SHT31;68762;51.980;5.646;2023-05-27T15:32:42;27.5;30.3
79187;SHT31;68762;51.980;5.646;2023-05-27T15:35:12;27.5;29.8
79187;SHT31;68762;51.980;5.646;2023-05-27T15:37:40;27.5;29.3
79187;SHT31;68762;51.980;5.646;2023-05-27T15:40:10;27.5;30.1
79187;SHT31;68762;51.980;5.646;2023-05-27T15:42:39;27.5;29.8
79187;SHT31;68762;51.980;5.646;2023-05-27T15:45:08;27.5;30.0
79187;SHT31;68762;51.980;5.646;2023-05-27T15:47:37;27.5;29.2
79187;SHT31;68762;51.980;5.646;2023-05-27T15:50:06;27.5;30.2
79187;SHT31;68762;51.980;5.646;2023-05-27T15:52:35;27.5;29.3
79187;SHT31;68762;51.980;5.646;2023-05-27T15:55:04;27.5;29.1
79187;SHT31;68762;51.980;5.646;2023-05-27T15:57:32;27.5;29.9
79187;SHT31;68762;51.980;5.646;2023-05-27T16:00:01;27.5;30.2
79187;SHT31;68762;51.980;5.646;2023-05-27T16:02:32;27.5;28.9
79187;SHT31;68762;51.980;5.646;2023-05-27T16:05:00;27.5;29.1
79187;SHT31;68762;51.980;5.646;2023-05-27T16:07:29;27.5;28.3
79187;SHT31;68762;51.980;5.646;2023-05-27T16:09:57;27.4;29.0
79187;SHT31;68762;51.980;5.646;2023-05-27T16:12:26;27.4;28.1
79187;SHT31;68762;51.980;5.646;2023-05-27T16:14:55;27.4;28.2
79187;SHT31;68762;51.980;5.646;2023-05-27T16:17:23;27.3;28.2